Time;durP1;ratioP1;P1;durP2;ratioP2;P2;SDS_P1;SDS_P2;PMS_P1;PMS_P2;Temp;Humidity;BMP_temperature;BMP_pressure;BME280_temperature;BME280_humidity;BME280_pressure;Samples;Min_cycle;Max_cycle;Signal;HPM_P1;HPM_P2
2023/04/13 00:00:47;;;;;;;4.50;1.50;;;6.40;99.90;;;;;;5042261;28;20052;-76
2023/04/13 00:03:15;;;;;;;5.90;1.70;;;5.50;99.90;;;;;;5042543;28;20076;-76
2023/04/13 00:05:42;;;;;;;4.55;1.40;;;5.50;99.90;;;;;;5043584;28;20056;-76
2023/04/13 00:08:08;;;;;;;5.60;1.50;;;6.50;99.90;;;;;;5041862;28;20081;-76
2023/04/13 00:10:35;;;;;;;10.95;1.83;;;5.50;99.90;;;;;;5043816;28;20045;-76
2023/04/13 00:13:06;;;;;;;5.30;1.73;;;5.80;99.90;;;;;;5041893;28;20102;-76
2023/04/13 00:15:35;;;;;;;5.30;2.20;;;5.60;99.90;;;;;;5026422;28;20096;-76
2023/04/13 00:18:02;;;;;;;5.93;1.90;;;5.60;99.90;;;;;;5042049;28;20049;-76
2023/04/13 00:20:28;;;;;;;4.60;2.20;;;5.80;99.90;;;;;;5045535;28;20051;-76
2023/04/13 00:22:55;;;;;;;4.78;1.80;;;5.70;99.90;;;;;;5046382;28;20041;-76
2023/04/13 00:25:20;;;;;;;19.50;4.85;;;5.70;99.90;;;;;;5029162;28;20049;-76
2023/04/13 00:27:48;;;;;;;5.18;1.77;;;5.80;99.90;;;;;;5046508;28;20044;-76
2023/04/13 00:30:17;;;;;;;5.95;1.58;;;5.90;99.90;;;;;;5062430;28;20092;-76
2023/04/13 00:32:44;;;;;;;3.40;2.00;;;5.90;99.90;;;;;;5046126;28;20512;-76
2023/04/13 00:35:14;;;;;;;4.72;1.90;;;5.90;99.90;;;;;;5046219;28;20087;-76
2023/04/13 00:37:41;;;;;;;5.55;2.00;;;6.50;99.90;;;;;;5028943;28;20041;-76
2023/04/13 00:40:09;;;;;;;3.50;1.92;;;6.00;99.90;;;;;;5029200;28;20105;-76
2023/04/13 00:42:35;;;;;;;2.53;1.90;;;6.00;99.90;;;;;;5028659;28;20077;-76
2023/04/13 00:45:01;;;;;;;5.40;1.88;;;6.10;99.90;;;;;;5046223;28;20096;-76
2023/04/13 00:47:31;;;;;;;7.63;2.85;;;6.10;99.90;;;;;;5045226;28;20056;-76
2023/04/13 00:50:00;;;;;;;6.97;2.40;;;6.10;99.90;;;;;;5047037;28;20045;-76
2023/04/13 00:52:27;;;;;;;3.97;2.20;;;6.10;99.90;;;;;;5045060;28;20056;-76
2023/04/13 00:54:56;;;;;;;5.88;2.08;;;5.60;99.90;;;;;;5045199;28;20138;-76
2023/04/13 00:57:24;;;;;;;3.38;2.17;;;6.10;99.90;;;;;;5028729;28;20037;-76
2023/04/13 00:59:51;;;;;;;3.60;2.40;;;7.60;99.90;;;;;;5028537;28;20579;-76
2023/04/13 01:02:21;;;;;;;4.55;2.70;;;6.20;99.90;;;;;;5029304;28;20095;-76
2023/04/13 01:04:48;;;;;;;4.05;2.67;;;6.20;99.90;;;;;;5012763;28;20130;-76
2023/04/13 01:07:43;;;;;;;3.13;2.10;;;6.20;99.90;;;;;;5045670;28;20114;-76
2023/04/13 01:10:27;;;;;;;5.20;2.50;;;6.30;99.90;;;;;;5045512;28;20049;-76
2023/04/13 01:13:39;;;;;;;5.28;2.58;;;6.30;99.90;;;;;;5044717;28;20045;-76
2023/04/13 01:16:11;;;;;;;4.03;2.63;;;6.40;99.90;;;;;;5028171;28;20059;-76
2023/04/13 01:18:40;;;;;;;5.28;2.63;;;6.60;99.90;;;;;;5045505;28;20510;-77
2023/04/13 01:21:11;;;;;;;9.45;3.10;;;6.50;99.90;;;;;;5028019;28;20462;-77
2023/04/13 01:23:57;;;;;;;5.28;3.33;;;6.70;99.90;;;;;;5044926;28;20044;-77
2023/04/13 01:26:32;;;;;;;4.80;3.38;;;6.40;99.90;;;;;;5044794;28;20053;-77
2023/04/13 01:28:57;;;;;;;4.80;3.25;;;6.40;99.90;;;;;;5045071;28;20500;-77
2023/04/13 01:31:23;;;;;;;4.00;2.97;;;6.30;99.90;;;;;;5027945;28;20037;-77
2023/04/13 01:33:50;;;;;;;6.82;3.47;;;6.30;99.90;;;;;;5027798;28;20044;-77
2023/04/13 01:36:16;;;;;;;3.88;2.60;;;6.30;99.90;;;;;;5028142;28;20098;-77
2023/04/13 01:38:42;;;;;;;7.45;3.17;;;6.20;99.90;;;;;;5044651;28;20088;-76
2023/04/13 01:41:08;;;;;;;6.68;3.38;;;6.10;99.90;;;;;;5045074;28;20080;-76
2023/04/13 01:43:34;;;;;;;5.38;2.67;;;6.20;99.90;;;;;;5044380;28;20045;-77
2023/04/13 01:46:08;;;;;;;4.18;2.38;;;7.20;99.90;;;;;;5044151;28;20049;-76
2023/04/13 01:48:50;;;;;;;4.95;2.67;;;6.50;99.90;;;;;;5046173;28;20098;-76
2023/04/13 01:51:28;;;;;;;6.95;2.50;;;6.10;99.90;;;;;;5043979;28;20060;-76
2023/04/13 01:54:11;;;;;;;2.85;1.98;;;6.10;99.90;;;;;;5028509;28;20067;-76
2023/04/13 01:56:41;;;;;;;6.95;2.25;;;6.10;99.90;;;;;;5044156;28;20119;-76
2023/04/13 01:59:07;;;;;;;4.05;2.28;;;6.10;99.90;;;;;;5044258;28;20095;-76
2023/04/13 02:01:33;;;;;;;3.95;2.22;;;7.00;99.90;;;;;;5043915;28;20052;-77
2023/04/13 02:04:00;;;;;;;3.28;2.40;;;6.10;99.90;;;;;;5027405;28;20045;-76
2023/04/13 02:06:26;;;;;;;6.03;1.42;;;7.50;99.90;;;;;;5044402;28;20072;-77
2023/04/13 02:08:52;;;;;;;4.10;1.80;;;7.30;99.90;;;;;;5027226;28;20041;-77
2023/04/13 02:11:18;;;;;;;2.95;1.92;;;6.10;99.90;;;;;;5044275;28;20102;-76
2023/04/13 02:13:44;;;;;;;3.38;1.95;;;6.10;99.90;;;;;;5044265;28;20439;-76
2023/04/13 02:16:09;;;;;;;8.10;2.20;;;6.10;99.90;;;;;;5043965;28;20037;-76
2023/04/13 02:18:35;;;;;;;6.45;2.20;;;6.10;99.90;;;;;;5043842;28;20044;-76
2023/04/13 02:21:10;;;;;;;4.70;1.80;;;7.60;99.90;;;;;;5043218;28;20048;-76
2023/04/13 02:23:37;;;;;;;4.43;1.73;;;6.10;99.90;;;;;;5044236;28;20523;-76
2023/04/13 02:26:06;;;;;;;6.25;2.17;;;7.40;99.90;;;;;;5060312;28;20049;-76
2023/04/13 02:28:33;;;;;;;6.75;2.00;;;7.40;99.90;;;;;;5027142;28;20049;-77
2023/04/13 02:30:59;;;;;;;5.80;2.00;;;6.30;99.90;;;;;;5027557;28;20044;-76
2023/04/13 02:33:29;;;;;;;5.90;2.30;;;6.10;99.90;;;;;;5043816;28;20045;-77
2023/04/13 02:35:55;;;;;;;5.45;1.90;;;6.50;99.90;;;;;;5043935;28;20141;-77
2023/04/13 02:38:21;;;;;;;7.25;1.80;;;6.10;99.90;;;;;;5043179;28;20120;-77
2023/04/13 02:40:48;;;;;;;4.00;1.38;;;6.50;99.90;;;;;;5043462;28;20136;-77
2023/04/13 02:43:14;;;;;;;2.83;1.52;;;6.10;99.90;;;;;;5043082;28;20045;-76
2023/04/13 02:45:40;;;;;;;2.58;1.48;;;7.60;99.90;;;;;;5026715;28;20100;-76
2023/04/13 02:48:08;;;;;;;3.95;1.40;;;7.20;99.90;;;;;;5043247;28;20088;-76
2023/04/13 02:50:34;;;;;;;2.95;1.38;;;6.90;99.90;;;;;;5026774;28;20205;-77
2023/04/13 02:53:00;;;;;;;4.30;1.55;;;6.10;99.90;;;;;;5027453;28;20047;-76
2023/04/13 02:55:26;;;;;;;3.25;1.30;;;6.10;99.90;;;;;;5026179;28;20037;-76
2023/04/13 02:57:53;;;;;;;2.00;0.80;;;6.10;99.90;;;;;;5043541;28;20079;-76
2023/04/13 03:00:19;;;;;;;2.78;1.30;;;6.10;99.90;;;;;;5042581;28;20045;-76
2023/04/13 03:02:45;;;;;;;3.30;1.15;;;6.10;99.90;;;;;;5044092;28;20451;-76
2023/04/13 03:05:11;;;;;;;2.47;0.90;;;6.70;99.90;;;;;;5044218;28;20094;-76
2023/04/13 03:07:37;;;;;;;3.00;0.93;;;6.40;99.90;;;;;;5042671;28;20094;-77
2023/04/13 03:10:04;;;;;;;2.67;1.48;;;6.20;99.90;;;;;;5027109;28;20048;-77
2023/04/13 03:12:33;;;;;;;4.43;1.13;;;6.10;99.90;;;;;;5042291;28;20084;-76
2023/04/13 03:15:01;;;;;;;3.50;0.80;;;7.40;99.90;;;;;;5042872;28;20060;-77
2023/04/13 03:17:29;;;;;;;2.83;1.00;;;6.20;99.90;;;;;;5042506;28;20053;-76
2023/04/13 03:19:55;;;;;;;3.67;0.80;;;6.20;99.90;;;;;;5026070;28;20052;-77
2023/04/13 03:22:22;;;;;;;2.17;0.93;;;7.20;99.90;;;;;;5026269;28;20044;-77
2023/04/13 03:24:47;;;;;;;2.53;1.13;;;6.20;99.90;;;;;;5042752;28;20059;-77
2023/04/13 03:27:13;;;;;;;2.80;0.90;;;6.50;99.90;;;;;;5010128;28;20405;-77
2023/04/13 03:29:39;;;;;;;4.10;0.90;;;6.20;99.90;;;;;;5025562;28;20049;-77
2023/04/13 03:32:05;;;;;;;2.58;0.88;;;6.20;99.90;;;;;;5026150;28;20156;-76
2023/04/13 03:34:30;;;;;;;2.17;0.88;;;6.20;99.90;;;;;;5025443;28;20146;-77
2023/04/13 03:36:56;;;;;;;3.60;0.60;;;7.60;99.90;;;;;;5042602;28;20041;-77
2023/04/13 03:39:22;;;;;;;3.83;1.15;;;6.20;99.90;;;;;;5026152;28;20125;-77
2023/04/13 03:41:47;;;;;;;4.90;1.67;;;6.20;99.90;;;;;;5025539;28;20052;-77
2023/04/13 03:44:13;;;;;;;3.63;0.98;;;6.50;99.90;;;;;;5025507;28;20052;-77
2023/04/13 03:46:40;;;;;;;3.60;1.02;;;6.20;99.90;;;;;;5025407;28;20377;-76
2023/04/13 03:49:08;;;;;;;5.65;1.48;;;6.50;99.90;;;;;;5010520;28;20426;-77
2023/04/13 03:51:34;;;;;;;2.30;0.95;;;7.00;99.90;;;;;;5042079;28;20126;-77
2023/04/13 03:54:00;;;;;;;4.47;1.02;;;7.80;99.90;;;;;;5042592;28;20052;-78
2023/04/13 03:56:26;;;;;;;4.95;1.50;;;7.00;99.90;;;;;;5009351;28;20476;-78
2023/04/13 03:58:53;;;;;;;4.13;1.02;;;6.30;99.90;;;;;;5042431;28;20045;-78
2023/04/13 04:01:19;;;;;;;3.70;1.00;;;6.30;99.90;;;;;;5025728;28;20051;-77
2023/04/13 04:03:44;;;;;;;2.13;1.02;;;7.70;99.90;;;;;;5025147;28;20139;-76
2023/04/13 04:06:10;;;;;;;3.63;1.00;;;7.50;99.90;;;;;;5042243;28;20056;-77
2023/04/13 04:08:36;;;;;;;3.67;1.00;;;6.30;99.90;;;;;;5041939;28;20045;-77
2023/04/13 04:11:03;;;;;;;1.80;1.20;;;7.70;99.90;;;;;;5042261;28;20080;-76
2023/04/13 04:13:29;;;;;;;4.68;2.78;;;6.30;99.90;;;;;;5026174;28;20047;-77
2023/04/13 04:15:55;;;;;;;3.40;1.10;;;7.60;99.90;;;;;;5026056;28;20518;-79
2023/04/13 04:18:21;;;;;;;1.80;0.98;;;6.40;99.90;;;;;;5025575;28;20098;-79
2023/04/13 04:20:47;;;;;;;1.98;0.95;;;6.50;99.90;;;;;;5041469;28;20049;-77
2023/04/13 04:23:14;;;;;;;3.30;1.85;;;6.40;99.90;;;;;;5042607;28;20049;-79
2023/04/13 04:25:40;;;;;;;6.25;1.40;;;7.20;99.90;;;;;;5041344;28;20045;-78
2023/04/13 04:28:06;;;;;;;1.55;1.10;;;6.40;99.90;;;;;;5025617;28;20048;-78
2023/04/13 04:30:33;;;;;;;3.47;0.90;;;6.80;99.90;;;;;;5041851;28;20041;-78
2023/04/13 04:33:02;;;;;;;2.03;0.98;;;6.30;99.90;;;;;;5041679;28;20135;-77
2023/04/13 04:35:32;;;;;;;2.75;1.40;;;6.30;99.90;;;;;;5041896;28;20095;-76
2023/04/13 04:38:04;;;;;;;3.13;0.80;;;6.20;99.90;;;;;;5041818;28;20045;-81
2023/04/13 04:40:30;;;;;;;2.33;1.23;;;6.20;99.90;;;;;;5041893;28;20045;-77
2023/04/13 04:42:58;;;;;;;2.50;1.30;;;6.30;99.90;;;;;;5024546;28;20037;-77
2023/04/13 04:45:31;;;;;;;1.33;0.90;;;6.90;99.90;;;;;;5026009;28;20060;-77
2023/04/13 04:47:57;;;;;;;3.70;1.27;;;6.10;99.90;;;;;;5025433;28;20550;-77
2023/04/13 04:50:24;;;;;;;6.53;1.08;;;6.10;99.90;;;;;;5041513;28;20072;-77
2023/04/13 04:52:52;;;;;;;6.45;1.40;;;6.10;99.90;;;;;;5042280;28;20116;-77
2023/04/13 04:55:17;;;;;;;2.42;1.10;;;6.60;99.90;;;;;;5025036;28;20048;-78
2023/04/13 04:57:44;;;;;;;4.55;1.30;;;6.00;99.90;;;;;;5042144;28;20076;-79
2023/04/13 05:00:16;;;;;;;3.75;1.40;;;6.00;99.90;;;;;;5041461;28;20242;-78
2023/04/13 05:02:43;;;;;;;3.40;1.27;;;6.00;99.90;;;;;;5025979;28;20396;-79
2023/04/13 05:05:10;;;;;;;2.10;1.27;;;6.00;99.90;;;;;;5042150;28;20068;-78
2023/04/13 05:07:37;;;;;;;5.88;1.33;;;6.00;99.90;;;;;;5028178;28;20558;-78
2023/04/13 05:10:03;;;;;;;4.55;1.30;;;7.00;99.90;;;;;;5045749;28;20055;-80
2023/04/13 05:12:29;;;;;;;3.65;1.20;;;6.00;99.90;;;;;;5028186;28;20136;-75
2023/04/13 05:14:55;;;;;;;2.38;1.35;;;6.30;99.90;;;;;;5046769;28;20135;-78
2023/04/13 05:17:24;;;;;;;3.97;2.10;;;6.60;99.90;;;;;;5044648;28;20044;-78
2023/04/13 05:19:50;;;;;;;5.03;1.85;;;6.30;99.90;;;;;;5046338;28;20049;-78
2023/04/13 05:22:17;;;;;;;4.20;2.00;;;6.10;99.90;;;;;;5046233;28;20083;-78
2023/04/13 05:24:42;;;;;;;2.95;2.30;;;6.80;99.90;;;;;;5045973;28;20045;-79
2023/04/13 05:27:08;;;;;;;4.68;2.08;;;6.20;99.90;;;;;;5045282;28;20049;-80
2023/04/13 05:29:35;;;;;;;4.03;2.38;;;6.20;99.90;;;;;;5044259;28;20500;-83
2023/04/13 05:32:03;;;;;;;4.72;2.22;;;6.50;99.90;;;;;;5028386;28;20077;-79
2023/04/13 05:34:31;;;;;;;6.63;2.53;;;6.30;99.90;;;;;;5044234;28;20101;-78
2023/04/13 05:36:57;;;;;;;8.10;2.65;;;6.40;99.90;;;;;;5045515;28;20128;-78
2023/04/13 05:39:23;;;;;;;4.25;2.78;;;6.50;99.90;;;;;;5028181;28;20128;-79
2023/04/13 05:41:50;;;;;;;6.65;2.78;;;6.50;99.90;;;;;;5044116;28;20056;-78
2023/04/13 05:44:15;;;;;;;8.48;3.15;;;6.40;99.90;;;;;;5044466;28;20098;-77
